Athina V — 9H8661 — position and weather

sailwx.info

Track history (hours):
 
Tides and Currents Weather Stations Pressure Air Temp Water Temp Dewpoint Dewpoint Depression Visibility Wind Speed Wind Dir Waves Ship Positions

Athina V

Last reported at 2016-May-30 14:31 UTC. Time now 2016-Jun-01 03:39 UTC.
Position N 37°19' E 023°22'.

Length 19 m; draft 3 m.

Type: Sailing vessel. MMSI: 256655000.

Date/timePositionNaut miles runAvg speedWind from/ knotsBaromVisibWave heightAir tempDewpointWater temp
2016-May-30 14:31N 37°19' E 023°22'4 4.1
2016-May-30 13:29N 37°22' E 023°26'4 4.1
2016-May-30 12:33N 37°24' E 023°30'5 5.1
2016-May-30 11:33N 37°29' E 023°33'5 1.6
2016-May-30 08:13N 37°30' E 023°27'0 0.0
2016-May-30 07:33N 37°30' E 023°27'0 0.0
2016-May-30 06:33N 37°30' E 023°27'0 0.0
2016-May-30 05:34N 37°30' E 023°27'0 0.0
2016-May-30 04:33N 37°30' E 023°27'0 0.0
2016-May-30 03:33N 37°30' E 023°27'0 0.0
2016-May-30 02:33N 37°30' E 023°27'0 0.0
2016-May-30 01:33N 37°30' E 023°27'0 0.0
2016-May-30 00:33N 37°30' E 023°27'0 0.0
2016-May-29 23:33N 37°30' E 023°27'0 0.0
2016-May-29 22:33N 37°30' E 023°27'0 0.0
2016-May-29 21:33N 37°30' E 023°27'0 0.0
2016-May-29 20:33N 37°30' E 023°27'1 1.3
2016-May-29 19:33N 37°31' E 023°25'6 5.7
2016-May-29 18:33N 37°37' E 023°25'5 4.8
2016-May-29 17:33N 37°40' E 023°21'5 5.1
2016-May-29 16:34N 37°43' E 023°16'5 5.1
2016-May-29 15:34N 37°47' E 023°12'5 5.2
2016-May-29 14:33N 37°51' E 023°07'5 4.9
2016-May-29 13:33N 37°54' E 023°03'  
2016-May-22 13:21N 37°54' E 015°47'4 4.7
2016-May-22 12:33N 37°55' E 015°43'6 5.6
2016-May-22 11:33N 37°59' E 015°38'6 6.2
2016-May-22 10:33N 38°06' E 015°37'3 3.1
2016-May-22 09:33N 38°08' E 015°39'1 0.9
2016-May-22 08:33N 38°07' E 015°39'5 4.6
2016-May-22 07:33N 38°12' E 015°37'5 4.9
2016-May-22 06:34N 38°17' E 015°39'5 4.9
2016-May-22 05:34N 38°19' E 015°34'6 5.7
2016-May-22 04:33N 38°17' E 015°27'5 5.2
2016-May-22 03:34N 38°15' E 015°20'5 4.6
2016-May-22 02:31N 38°13' E 015°15'0 0.1
2016-May-22 01:31N 38°13' E 015°15'0 0.0
2016-May-22 00:27N 38°13' E 015°15'0 0.0
2016-May-21 22:31N 38°13' E 015°15'0 0.0
2016-May-21 21:32N 38°13' E 015°15'1 0.7
2016-May-21 20:27N 38°14' E 015°15'3 3.9
2016-May-21 19:34N 38°17' E 015°16'6 5.6
2016-May-21 18:32N 38°21' E 015°09'4 4.6
2016-May-21 17:34N 38°22' E 015°04'3 2.8
2016-May-21 16:33N 38°23' E 015°01'3 2.7
2016-May-21 15:33N 38°25' E 014°59'3 2.7
2016-May-21 14:33N 38°28' E 014°58'  
Track history (hours):
 
Tides and Currents Weather Stations Pressure Air Temp Water Temp Dewpoint Dewpoint Depression Visibility Wind Speed Wind Dir Waves Ship Positions

Athina V

Last reported at 2016-May-30 14:31 UTC. Time now 2016-Jun-01 03:39 UTC.
Position N 37°19' E 023°22'.

Length 19 m; draft 3 m.

Type: Sailing vessel. MMSI: 256655000.

Date/timePositionNaut miles runAvg speedWind from/ knotsBaromVisibWave heightAir tempDewpointWater temp
2016-May-30 14:31N 37°19' E 023°22'4 4.1
2016-May-30 13:29N 37°22' E 023°26'4 4.1
2016-May-30 12:33N 37°24' E 023°30'5 5.1
2016-May-30 11:33N 37°29' E 023°33'5 1.6
2016-May-30 08:13N 37°30' E 023°27'0 0.0
2016-May-30 07:33N 37°30' E 023°27'0 0.0
2016-May-30 06:33N 37°30' E 023°27'0 0.0
2016-May-30 05:34N 37°30' E 023°27'0 0.0
2016-May-30 04:33N 37°30' E 023°27'0 0.0
2016-May-30 03:33N 37°30' E 023°27'0 0.0
2016-May-30 02:33N 37°30' E 023°27'0 0.0
2016-May-30 01:33N 37°30' E 023°27'0 0.0
2016-May-30 00:33N 37°30' E 023°27'0 0.0
2016-May-29 23:33N 37°30' E 023°27'0 0.0
2016-May-29 22:33N 37°30' E 023°27'0 0.0
2016-May-29 21:33N 37°30' E 023°27'0 0.0
2016-May-29 20:33N 37°30' E 023°27'1 1.3
2016-May-29 19:33N 37°31' E 023°25'6 5.7
2016-May-29 18:33N 37°37' E 023°25'5 4.8
2016-May-29 17:33N 37°40' E 023°21'5 5.1
2016-May-29 16:34N 37°43' E 023°16'5 5.1
2016-May-29 15:34N 37°47' E 023°12'5 5.2
2016-May-29 14:33N 37°51' E 023°07'5 4.9
2016-May-29 13:33N 37°54' E 023°03'  
2016-May-22 13:21N 37°54' E 015°47'4 4.7
2016-May-22 12:33N 37°55' E 015°43'6 5.6
2016-May-22 11:33N 37°59' E 015°38'6 6.2
2016-May-22 10:33N 38°06' E 015°37'3 3.1
2016-May-22 09:33N 38°08' E 015°39'1 0.9
2016-May-22 08:33N 38°07' E 015°39'5 4.6
2016-May-22 07:33N 38°12' E 015°37'5 4.9
2016-May-22 06:34N 38°17' E 015°39'5 4.9
2016-May-22 05:34N 38°19' E 015°34'6 5.7
2016-May-22 04:33N 38°17' E 015°27'5 5.2
2016-May-22 03:34N 38°15' E 015°20'5 4.6
2016-May-22 02:31N 38°13' E 015°15'0 0.1
2016-May-22 01:31N 38°13' E 015°15'0 0.0
2016-May-22 00:27N 38°13' E 015°15'0 0.0
2016-May-21 22:31N 38°13' E 015°15'0 0.0
2016-May-21 21:32N 38°13' E 015°15'1 0.7
2016-May-21 20:27N 38°14' E 015°15'3 3.9
2016-May-21 19:34N 38°17' E 015°16'6 5.6
2016-May-21 18:32N 38°21' E 015°09'4 4.6
2016-May-21 17:34N 38°22' E 015°04'3 2.8
2016-May-21 16:33N 38°23' E 015°01'3 2.7
2016-May-21 15:33N 38°25' E 014°59'3 2.7
2016-May-21 14:33N 38°28' E 014°58'  

Dump ship's entire track history